sensor_id;sensor_type;location;lat;lon;timestamp;P1;durP1;ratioP1;P2;durP2;ratioP2
8944;SDS011;4507;40.232;29.132;2023-03-01T00:01:59;95.33;;;71.97;;
8944;SDS011;4507;40.232;29.132;2023-03-01T00:04:28;48.50;;;32.40;;
8944;SDS011;4507;40.232;29.132;2023-03-01T00:06:57;32.93;;;20.23;;
8944;SDS011;4507;40.232;29.132;2023-03-01T00:09:26;25.93;;;17.47;;
8944;SDS011;4507;40.232;29.132;2023-03-01T00:11:55;35.47;;;24.93;;
8944;SDS011;4507;40.232;29.132;2023-03-01T00:14:24;33.53;;;22.13;;
8944;SDS011;4507;40.232;29.132;2023-03-01T00:16:54;51.30;;;35.87;;
8944;SDS011;4507;40.232;29.132;2023-03-01T00:19:23;112.80;;;87.57;;
8944;SDS011;4507;40.232;29.132;2023-03-01T00:21:52;99.83;;;89.20;;
8944;SDS011;4507;40.232;29.132;2023-03-01T00:24:21;58.63;;;49.87;;
8944;SDS011;4507;40.232;29.132;2023-03-01T00:26:52;52.80;;;38.53;;
8944;SDS011;4507;40.232;29.132;2023-03-01T00:29:22;45.43;;;36.50;;
8944;SDS011;4507;40.232;29.132;2023-03-01T00:31:53;91.20;;;74.80;;
8944;SDS011;4507;40.232;29.132;2023-03-01T00:34:22;84.20;;;72.60;;
8944;SDS011;4507;40.232;29.132;2023-03-01T00:36:51;65.27;;;52.93;;
8944;SDS011;4507;40.232;29.132;2023-03-01T00:39:20;49.73;;;34.87;;
8944;SDS011;4507;40.232;29.132;2023-03-01T00:41:49;32.60;;;24.17;;
8944;SDS011;4507;40.232;29.132;2023-03-01T00:44:18;44.17;;;25.97;;
8944;SDS011;4507;40.232;29.132;2023-03-01T00:46:48;27.57;;;18.13;;
8944;SDS011;4507;40.232;29.132;2023-03-01T00:49:19;36.93;;;26.70;;
8944;SDS011;4507;40.232;29.132;2023-03-01T00:51:48;34.23;;;23.87;;
8944;SDS011;4507;40.232;29.132;2023-03-01T00:54:17;29.20;;;18.67;;
8944;SDS011;4507;40.232;29.132;2023-03-01T00:56:46;28.40;;;19.47;;
8944;SDS011;4507;40.232;29.132;2023-03-01T00:59:15;39.30;;;24.50;;
8944;SDS011;4507;40.232;29.132;2023-03-01T01:01:44;36.13;;;26.67;;
8944;SDS011;4507;40.232;29.132;2023-03-01T01:04:13;45.57;;;29.80;;
8944;SDS011;4507;40.232;29.132;2023-03-01T01:06:46;43.93;;;27.90;;
8944;SDS011;4507;40.232;29.132;2023-03-01T01:09:16;43.33;;;25.60;;
8944;SDS011;4507;40.232;29.132;2023-03-01T01:11:46;41.43;;;24.93;;
8944;SDS011;4507;40.232;29.132;2023-03-01T01:14:16;29.97;;;21.37;;
8944;SDS011;4507;40.232;29.132;2023-03-01T01:16:47;38.87;;;21.50;;
8944;SDS011;4507;40.232;29.132;2023-03-01T01:19:16;33.73;;;21.97;;
8944;SDS011;4507;40.232;29.132;2023-03-01T01:21:46;33.60;;;22.20;;
8944;SDS011;4507;40.232;29.132;2023-03-01T01:24:16;39.10;;;21.73;;
8944;SDS011;4507;40.232;29.132;2023-03-01T01:26:45;32.77;;;21.73;;
8944;SDS011;4507;40.232;29.132;2023-03-01T01:29:14;35.50;;;22.83;;
8944;SDS011;4507;40.232;29.132;2023-03-01T01:31:43;35.20;;;22.40;;
8944;SDS011;4507;40.232;29.132;2023-03-01T01:34:13;32.63;;;22.20;;
8944;SDS011;4507;40.232;29.132;2023-03-01T01:36:43;40.17;;;22.83;;
8944;SDS011;4507;40.232;29.132;2023-03-01T01:39:16;34.67;;;22.93;;
8944;SDS011;4507;40.232;29.132;2023-03-01T01:41:45;33.63;;;22.53;;
8944;SDS011;4507;40.232;29.132;2023-03-01T01:44:17;31.53;;;20.17;;
8944;SDS011;4507;40.232;29.132;2023-03-01T01:46:49;33.93;;;19.47;;
8944;SDS011;4507;40.232;29.132;2023-03-01T01:49:27;31.80;;;19.60;;
8944;SDS011;4507;40.232;29.132;2023-03-01T01:52:05;34.57;;;20.33;;
8944;SDS011;4507;40.232;29.132;2023-03-01T01:54:44;46.30;;;24.20;;
8944;SDS011;4507;40.232;29.132;2023-03-01T01:57:18;45.00;;;24.67;;
8944;SDS011;4507;40.232;29.132;2023-03-01T01:59:52;35.47;;;20.80;;
8944;SDS011;4507;40.232;29.132;2023-03-01T02:02:23;38.43;;;22.73;;
8944;SDS011;4507;40.232;29.132;2023-03-01T02:04:55;35.27;;;22.00;;
8944;SDS011;4507;40.232;29.132;2023-03-01T02:07:31;31.63;;;20.23;;
8944;SDS011;4507;40.232;29.132;2023-03-01T02:10:02;33.43;;;19.70;;
8944;SDS011;4507;40.232;29.132;2023-03-01T02:12:32;37.13;;;20.90;;
8944;SDS011;4507;40.232;29.132;2023-03-01T02:15:02;27.37;;;16.00;;
8944;SDS011;4507;40.232;29.132;2023-03-01T02:17:32;31.20;;;20.70;;
8944;SDS011;4507;40.232;29.132;2023-03-01T02:20:07;66.40;;;42.90;;
8944;SDS011;4507;40.232;29.132;2023-03-01T02:22:46;87.57;;;57.40;;
8944;SDS011;4507;40.232;29.132;2023-03-01T02:25:25;81.70;;;56.70;;
8944;SDS011;4507;40.232;29.132;2023-03-01T02:27:58;40.63;;;28.30;;
8944;SDS011;4507;40.232;29.132;2023-03-01T02:30:34;44.90;;;33.13;;
8944;SDS011;4507;40.232;29.132;2023-03-01T02:33:04;38.00;;;24.53;;
8944;SDS011;4507;40.232;29.132;2023-03-01T02:35:32;31.57;;;20.77;;
8944;SDS011;4507;40.232;29.132;2023-03-01T02:38:06;36.97;;;22.83;;
8944;SDS011;4507;40.232;29.132;2023-03-01T02:40:36;37.47;;;24.67;;
8944;SDS011;4507;40.232;29.132;2023-03-01T02:43:08;38.37;;;27.87;;
8944;SDS011;4507;40.232;29.132;2023-03-01T02:45:47;42.10;;;26.90;;
8944;SDS011;4507;40.232;29.132;2023-03-01T02:48:40;35.93;;;26.93;;
8944;SDS011;4507;40.232;29.132;2023-03-01T02:51:12;40.07;;;26.20;;
8944;SDS011;4507;40.232;29.132;2023-03-01T02:53:59;47.10;;;28.23;;
8944;SDS011;4507;40.232;29.132;2023-03-01T02:56:36;38.80;;;29.57;;
8944;SDS011;4507;40.232;29.132;2023-03-01T02:59:05;35.30;;;23.33;;
8944;SDS011;4507;40.232;29.132;2023-03-01T03:01:36;33.07;;;23.63;;
8944;SDS011;4507;40.232;29.132;2023-03-01T03:04:08;31.20;;;21.57;;
8944;SDS011;4507;40.232;29.132;2023-03-01T03:06:38;33.57;;;24.20;;
8944;SDS011;4507;40.232;29.132;2023-03-01T03:09:09;34.67;;;24.23;;
8944;SDS011;4507;40.232;29.132;2023-03-01T03:11:40;32.23;;;23.70;;
8944;SDS011;4507;40.232;29.132;2023-03-01T03:14:10;33.57;;;24.40;;
8944;SDS011;4507;40.232;29.132;2023-03-01T03:16:45;50.90;;;31.67;;
8944;SDS011;4507;40.232;29.132;2023-03-01T03:19:16;44.73;;;30.10;;
8944;SDS011;4507;40.232;29.132;2023-03-01T03:21:46;37.70;;;24.07;;
8944;SDS011;4507;40.232;29.132;2023-03-01T03:24:20;36.27;;;20.90;;
8944;SDS011;4507;40.232;29.132;2023-03-01T03:27:10;33.77;;;21.00;;
8944;SDS011;4507;40.232;29.132;2023-03-01T03:29:39;34.53;;;21.90;;
8944;SDS011;4507;40.232;29.132;2023-03-01T03:32:09;33.67;;;22.23;;
8944;SDS011;4507;40.232;29.132;2023-03-01T03:34:38;37.93;;;24.33;;
8944;SDS011;4507;40.232;29.132;2023-03-01T03:37:07;70.00;;;28.33;;
8944;SDS011;4507;40.232;29.132;2023-03-01T03:39:57;42.73;;;25.47;;
8944;SDS011;4507;40.232;29.132;2023-03-01T03:42:27;71.70;;;36.77;;
8944;SDS011;4507;40.232;29.132;2023-03-01T03:44:56;61.43;;;31.60;;
8944;SDS011;4507;40.232;29.132;2023-03-01T03:47:27;82.40;;;53.13;;
8944;SDS011;4507;40.232;29.132;2023-03-01T03:49:55;95.03;;;60.73;;
8944;SDS011;4507;40.232;29.132;2023-03-01T03:52:24;89.27;;;63.57;;
8944;SDS011;4507;40.232;29.132;2023-03-01T03:54:53;42.93;;;27.87;;
8944;SDS011;4507;40.232;29.132;2023-03-01T03:57:22;40.07;;;28.93;;
8944;SDS011;4507;40.232;29.132;2023-03-01T03:59:51;44.87;;;29.90;;
8944;SDS011;4507;40.232;29.132;2023-03-01T04:02:20;52.90;;;36.20;;
8944;SDS011;4507;40.232;29.132;2023-03-01T04:04:51;57.77;;;41.67;;
8944;SDS011;4507;40.232;29.132;2023-03-01T04:07:20;51.57;;;35.03;;
8944;SDS011;4507;40.232;29.132;2023-03-01T04:09:49;62.83;;;45.57;;
8944;SDS011;4507;40.232;29.132;2023-03-01T04:12:18;71.10;;;47.70;;
8944;SDS011;4507;40.232;29.132;2023-03-01T04:15:08;72.10;;;47.97;;
8944;SDS011;4507;40.232;29.132;2023-03-01T04:17:40;70.00;;;46.30;;
8944;SDS011;4507;40.232;29.132;2023-03-01T04:20:12;55.97;;;41.40;;
8944;SDS011;4507;40.232;29.132;2023-03-01T04:22:44;52.43;;;39.23;;
8944;SDS011;4507;40.232;29.132;2023-03-01T04:25:17;51.60;;;39.03;;
8944;SDS011;4507;40.232;29.132;2023-03-01T04:28:05;53.90;;;38.67;;
8944;SDS011;4507;40.232;29.132;2023-03-01T04:30:34;56.00;;;40.97;;
8944;SDS011;4507;40.232;29.132;2023-03-01T04:33:04;61.97;;;42.30;;
8944;SDS011;4507;40.232;29.132;2023-03-01T04:35:35;56.93;;;42.10;;
8944;SDS011;4507;40.232;29.132;2023-03-01T04:38:05;58.83;;;40.83;;
8944;SDS011;4507;40.232;29.132;2023-03-01T04:40:35;57.70;;;40.63;;
8944;SDS011;4507;40.232;29.132;2023-03-01T04:43:06;57.17;;;42.77;;
8944;SDS011;4507;40.232;29.132;2023-03-01T04:45:37;63.03;;;42.23;;
8944;SDS011;4507;40.232;29.132;2023-03-01T04:48:06;62.03;;;42.63;;
8944;SDS011;4507;40.232;29.132;2023-03-01T04:50:36;57.10;;;42.00;;
8944;SDS011;4507;40.232;29.132;2023-03-01T04:53:06;71.30;;;43.20;;
8944;SDS011;4507;40.232;29.132;2023-03-01T04:55:34;58.00;;;42.77;;
8944;SDS011;4507;40.232;29.132;2023-03-01T04:58:04;75.57;;;46.80;;
8944;SDS011;4507;40.232;29.132;2023-03-01T05:00:34;81.63;;;50.07;;
8944;SDS011;4507;40.232;29.132;2023-03-01T05:03:03;82.03;;;56.47;;
8944;SDS011;4507;40.232;29.132;2023-03-01T05:05:33;80.07;;;56.80;;
8944;SDS011;4507;40.232;29.132;2023-03-01T05:08:07;69.73;;;53.63;;
8944;SDS011;4507;40.232;29.132;2023-03-01T05:10:44;82.27;;;54.20;;
8944;SDS011;4507;40.232;29.132;2023-03-01T05:13:15;72.83;;;52.97;;
8944;SDS011;4507;40.232;29.132;2023-03-01T05:15:48;72.23;;;52.17;;
8944;SDS011;4507;40.232;29.132;2023-03-01T05:18:21;75.30;;;48.63;;
8944;SDS011;4507;40.232;29.132;2023-03-01T05:20:52;62.73;;;47.70;;
8944;SDS011;4507;40.232;29.132;2023-03-01T05:23:24;75.77;;;46.90;;
8944;SDS011;4507;40.232;29.132;2023-03-01T05:25:53;69.13;;;44.70;;
8944;SDS011;4507;40.232;29.132;2023-03-01T05:28:26;71.67;;;45.00;;
8944;SDS011;4507;40.232;29.132;2023-03-01T05:30:56;70.17;;;45.23;;
8944;SDS011;4507;40.232;29.132;2023-03-01T05:33:26;73.67;;;47.07;;
8944;SDS011;4507;40.232;29.132;2023-03-01T05:35:59;69.97;;;47.70;;
8944;SDS011;4507;40.232;29.132;2023-03-01T05:38:29;79.63;;;49.07;;
8944;SDS011;4507;40.232;29.132;2023-03-01T05:40:59;78.13;;;51.10;;
8944;SDS011;4507;40.232;29.132;2023-03-01T05:43:29;84.10;;;56.77;;
8944;SDS011;4507;40.232;29.132;2023-03-01T05:46:01;92.53;;;61.13;;
8944;SDS011;4507;40.232;29.132;2023-03-01T05:48:32;84.67;;;58.50;;
8944;SDS011;4507;40.232;29.132;2023-03-01T05:51:01;78.07;;;55.03;;
8944;SDS011;4507;40.232;29.132;2023-03-01T05:53:31;72.47;;;51.00;;
8944;SDS011;4507;40.232;29.132;2023-03-01T05:56:02;80.73;;;52.90;;
8944;SDS011;4507;40.232;29.132;2023-03-01T05:58:32;77.80;;;52.33;;
8944;SDS011;4507;40.232;29.132;2023-03-01T06:01:00;77.87;;;53.20;;
8944;SDS011;4507;40.232;29.132;2023-03-01T06:03:29;78.87;;;53.87;;
8944;SDS011;4507;40.232;29.132;2023-03-01T06:05:58;84.67;;;54.40;;
8944;SDS011;4507;40.232;29.132;2023-03-01T06:08:28;83.43;;;55.80;;
8944;SDS011;4507;40.232;29.132;2023-03-01T06:10:58;82.80;;;55.80;;
8944;SDS011;4507;40.232;29.132;2023-03-01T06:13:27;83.63;;;55.43;;
8944;SDS011;4507;40.232;29.132;2023-03-01T06:15:56;83.90;;;55.17;;
8944;SDS011;4507;40.232;29.132;2023-03-01T06:18:25;90.20;;;55.77;;
8944;SDS011;4507;40.232;29.132;2023-03-01T06:20:54;91.40;;;58.70;;
8944;SDS011;4507;40.232;29.132;2023-03-01T06:23:23;88.00;;;56.53;;
8944;SDS011;4507;40.232;29.132;2023-03-01T06:25:52;90.60;;;57.60;;
8944;SDS011;4507;40.232;29.132;2023-03-01T06:28:23;94.83;;;57.83;;
8944;SDS011;4507;40.232;29.132;2023-03-01T06:30:52;85.63;;;55.00;;
8944;SDS011;4507;40.232;29.132;2023-03-01T06:33:21;84.63;;;55.47;;
8944;SDS011;4507;40.232;29.132;2023-03-01T06:35:51;77.40;;;54.80;;
8944;SDS011;4507;40.232;29.132;2023-03-01T06:38:22;78.40;;;54.53;;
8944;SDS011;4507;40.232;29.132;2023-03-01T06:40:51;82.93;;;55.57;;
8944;SDS011;4507;40.232;29.132;2023-03-01T06:43:24;82.20;;;56.30;;
8944;SDS011;4507;40.232;29.132;2023-03-01T06:45:53;82.17;;;54.87;;
8944;SDS011;4507;40.232;29.132;2023-03-01T06:48:22;82.97;;;57.07;;
8944;SDS011;4507;40.232;29.132;2023-03-01T06:50:51;79.07;;;55.40;;
8944;SDS011;4507;40.232;29.132;2023-03-01T06:53:20;79.37;;;55.27;;
8944;SDS011;4507;40.232;29.132;2023-03-01T06:55:53;84.63;;;54.87;;
8944;SDS011;4507;40.232;29.132;2023-03-01T06:58:22;81.77;;;52.20;;
8944;SDS011;4507;40.232;29.132;2023-03-01T07:00:53;72.27;;;52.13;;
8944;SDS011;4507;40.232;29.132;2023-03-01T07:03:22;67.40;;;50.43;;
8944;SDS011;4507;40.232;29.132;2023-03-01T07:05:51;72.97;;;52.50;;
8944;SDS011;4507;40.232;29.132;2023-03-01T07:08:20;70.77;;;52.63;;
8944;SDS011;4507;40.232;29.132;2023-03-01T07:10:54;72.13;;;51.17;;
8944;SDS011;4507;40.232;29.132;2023-03-01T07:13:25;71.83;;;51.20;;
8944;SDS011;4507;40.232;29.132;2023-03-01T07:15:54;70.17;;;50.93;;
8944;SDS011;4507;40.232;29.132;2023-03-01T07:18:23;71.90;;;51.43;;
8944;SDS011;4507;40.232;29.132;2023-03-01T07:20:52;73.60;;;49.63;;
8944;SDS011;4507;40.232;29.132;2023-03-01T07:23:21;68.33;;;51.57;;
8944;SDS011;4507;40.232;29.132;2023-03-01T07:25:52;76.57;;;52.50;;
8944;SDS011;4507;40.232;29.132;2023-03-01T07:28:23;71.03;;;50.87;;
8944;SDS011;4507;40.232;29.132;2023-03-01T07:31:00;68.80;;;49.40;;
8944;SDS011;4507;40.232;29.132;2023-03-01T07:33:30;67.33;;;49.47;;
8944;SDS011;4507;40.232;29.132;2023-03-01T07:36:01;70.03;;;51.40;;
8944;SDS011;4507;40.232;29.132;2023-03-01T07:38:31;68.37;;;52.83;;
8944;SDS011;4507;40.232;29.132;2023-03-01T07:41:02;68.73;;;51.73;;
8944;SDS011;4507;40.232;29.132;2023-03-01T07:43:34;64.20;;;51.20;;
8944;SDS011;4507;40.232;29.132;2023-03-01T07:46:05;74.20;;;53.50;;
8944;SDS011;4507;40.232;29.132;2023-03-01T07:48:35;68.50;;;51.77;;
8944;SDS011;4507;40.232;29.132;2023-03-01T07:51:06;67.83;;;51.57;;
8944;SDS011;4507;40.232;29.132;2023-03-01T07:53:36;75.70;;;57.00;;
8944;SDS011;4507;40.232;29.132;2023-03-01T07:56:06;81.67;;;59.13;;
8944;SDS011;4507;40.232;29.132;2023-03-01T07:58:51;71.57;;;53.17;;
8944;SDS011;4507;40.232;29.132;2023-03-01T08:01:21;69.00;;;52.80;;
8944;SDS011;4507;40.232;29.132;2023-03-01T08:04:11;68.70;;;52.90;;
8944;SDS011;4507;40.232;29.132;2023-03-01T08:07:00;70.77;;;53.73;;
8944;SDS011;4507;40.232;29.132;2023-03-01T08:09:46;73.43;;;57.20;;
8944;SDS011;4507;40.232;29.132;2023-03-01T08:12:15;77.50;;;54.73;;
8944;SDS011;4507;40.232;29.132;2023-03-01T08:14:47;69.13;;;56.10;;
8944;SDS011;4507;40.232;29.132;2023-03-01T08:17:19;76.90;;;56.63;;
8944;SDS011;4507;40.232;29.132;2023-03-01T08:20:03;70.30;;;54.37;;
8944;SDS011;4507;40.232;29.132;2023-03-01T08:22:33;78.17;;;56.47;;
8944;SDS011;4507;40.232;29.132;2023-03-01T08:25:02;74.37;;;57.03;;
8944;SDS011;4507;40.232;29.132;2023-03-01T08:27:32;75.40;;;56.80;;
8944;SDS011;4507;40.232;29.132;2023-03-01T08:30:03;78.23;;;58.67;;
8944;SDS011;4507;40.232;29.132;2023-03-01T08:32:35;84.97;;;59.87;;
8944;SDS011;4507;40.232;29.132;2023-03-01T08:35:06;82.53;;;61.47;;
8944;SDS011;4507;40.232;29.132;2023-03-01T08:37:35;77.80;;;58.80;;
8944;SDS011;4507;40.232;29.132;2023-03-01T08:40:05;77.47;;;58.13;;
8944;SDS011;4507;40.232;29.132;2023-03-01T08:42:36;70.77;;;57.27;;
8944;SDS011;4507;40.232;29.132;2023-03-01T08:45:08;76.70;;;59.53;;
8944;SDS011;4507;40.232;29.132;2023-03-01T08:47:38;84.50;;;61.43;;
8944;SDS011;4507;40.232;29.132;2023-03-01T08:50:08;82.40;;;60.63;;
8944;SDS011;4507;40.232;29.132;2023-03-01T08:52:38;79.40;;;59.30;;
8944;SDS011;4507;40.232;29.132;2023-03-01T08:55:07;93.63;;;69.10;;
8944;SDS011;4507;40.232;29.132;2023-03-01T08:57:37;111.97;;;89.57;;
8944;SDS011;4507;40.232;29.132;2023-03-01T09:00:08;101.73;;;76.90;;
8944;SDS011;4507;40.232;29.132;2023-03-01T09:02:41;85.50;;;62.80;;
8944;SDS011;4507;40.232;29.132;2023-03-01T09:05:10;74.83;;;60.70;;
8944;SDS011;4507;40.232;29.132;2023-03-01T09:07:39;84.03;;;61.63;;
8944;SDS011;4507;40.232;29.132;2023-03-01T09:10:09;107.33;;;73.13;;
8944;SDS011;4507;40.232;29.132;2023-03-01T09:12:39;97.27;;;70.40;;
8944;SDS011;4507;40.232;29.132;2023-03-01T09:15:10;72.17;;;57.37;;
8944;SDS011;4507;40.232;29.132;2023-03-01T09:17:39;77.03;;;59.07;;
8944;SDS011;4507;40.232;29.132;2023-03-01T09:20:08;82.33;;;57.67;;
8944;SDS011;4507;40.232;29.132;2023-03-01T09:22:38;81.00;;;57.93;;
8944;SDS011;4507;40.232;29.132;2023-03-01T09:25:08;67.07;;;56.40;;
8944;SDS011;4507;40.232;29.132;2023-03-01T09:27:37;78.00;;;57.23;;
8944;SDS011;4507;40.232;29.132;2023-03-01T09:30:06;78.40;;;59.17;;
8944;SDS011;4507;40.232;29.132;2023-03-01T09:32:38;82.37;;;60.13;;
8944;SDS011;4507;40.232;29.132;2023-03-01T09:35:09;81.17;;;60.87;;
8944;SDS011;4507;40.232;29.132;2023-03-01T09:37:39;80.40;;;60.73;;
8944;SDS011;4507;40.232;29.132;2023-03-01T09:40:11;101.83;;;65.43;;
8944;SDS011;4507;40.232;29.132;2023-03-01T09:42:50;88.27;;;58.87;;
8944;SDS011;4507;40.232;29.132;2023-03-01T09:45:25;79.17;;;56.77;;
8944;SDS011;4507;40.232;29.132;2023-03-01T09:47:59;81.50;;;56.33;;
8944;SDS011;4507;40.232;29.132;2023-03-01T09:50:32;82.10;;;55.43;;
8944;SDS011;4507;40.232;29.132;2023-03-01T09:53:05;77.93;;;57.37;;
8944;SDS011;4507;40.232;29.132;2023-03-01T09:55:39;74.93;;;55.23;;
8944;SDS011;4507;40.232;29.132;2023-03-01T09:58:29;82.23;;;58.10;;
8944;SDS011;4507;40.232;29.132;2023-03-01T10:01:10;71.83;;;54.17;;
8944;SDS011;4507;40.232;29.132;2023-03-01T10:04:00;72.53;;;55.23;;
8944;SDS011;4507;40.232;29.132;2023-03-01T10:06:43;73.30;;;55.77;;
8944;SDS011;4507;40.232;29.132;2023-03-01T10:09:18;78.07;;;55.67;;
8944;SDS011;4507;40.232;29.132;2023-03-01T10:11:49;78.13;;;56.30;;
8944;SDS011;4507;40.232;29.132;2023-03-01T10:14:24;79.63;;;55.13;;
8944;SDS011;4507;40.232;29.132;2023-03-01T10:17:02;76.97;;;53.40;;
8944;SDS011;4507;40.232;29.132;2023-03-01T10:19:36;74.20;;;52.13;;
8944;SDS011;4507;40.232;29.132;2023-03-01T10:22:10;69.07;;;50.53;;
8944;SDS011;4507;40.232;29.132;2023-03-01T10:24:48;75.30;;;54.30;;
8944;SDS011;4507;40.232;29.132;2023-03-01T10:27:21;77.53;;;53.10;;
8944;SDS011;4507;40.232;29.132;2023-03-01T10:29:55;64.57;;;51.23;;
8944;SDS011;4507;40.232;29.132;2023-03-01T10:32:35;70.20;;;52.13;;
8944;SDS011;4507;40.232;29.132;2023-03-01T10:35:17;71.97;;;51.50;;
8944;SDS011;4507;40.232;29.132;2023-03-01T10:37:57;66.10;;;51.20;;
8944;SDS011;4507;40.232;29.132;2023-03-01T10:40:30;65.47;;;49.57;;
8944;SDS011;4507;40.232;29.132;2023-03-01T10:43:01;68.80;;;50.10;;
8944;SDS011;4507;40.232;29.132;2023-03-01T10:45:36;68.23;;;51.17;;
8944;SDS011;4507;40.232;29.132;2023-03-01T10:48:11;65.63;;;50.03;;
8944;SDS011;4507;40.232;29.132;2023-03-01T10:50:44;71.30;;;53.93;;
8944;SDS011;4507;40.232;29.132;2023-03-01T10:53:24;74.90;;;53.60;;
8944;SDS011;4507;40.232;29.132;2023-03-01T10:55:57;70.23;;;50.33;;
8944;SDS011;4507;40.232;29.132;2023-03-01T10:58:28;72.50;;;52.30;;
8944;SDS011;4507;40.232;29.132;2023-03-01T11:00:58;73.17;;;50.93;;
8944;SDS011;4507;40.232;29.132;2023-03-01T11:03:29;77.43;;;52.00;;
8944;SDS011;4507;40.232;29.132;2023-03-01T11:06:03;65.23;;;50.13;;
8944;SDS011;4507;40.232;29.132;2023-03-01T11:08:35;74.23;;;53.03;;
8944;SDS011;4507;40.232;29.132;2023-03-01T11:11:20;66.70;;;51.43;;
8944;SDS011;4507;40.232;29.132;2023-03-01T11:13:59;64.07;;;49.67;;
8944;SDS011;4507;40.232;29.132;2023-03-01T11:17:11;69.03;;;50.77;;
8944;SDS011;4507;40.232;29.132;2023-03-01T11:19:46;68.17;;;49.70;;
8944;SDS011;4507;40.232;29.132;2023-03-01T11:22:32;64.10;;;49.97;;
8944;SDS011;4507;40.232;29.132;2023-03-01T11:25:02;74.90;;;51.93;;
8944;SDS011;4507;40.232;29.132;2023-03-01T11:27:38;70.57;;;51.93;;
8944;SDS011;4507;40.232;29.132;2023-03-01T11:32:47;69.73;;;53.33;;
8944;SDS011;4507;40.232;29.132;2023-03-01T11:35:22;70.47;;;52.60;;
8944;SDS011;4507;40.232;29.132;2023-03-01T11:38:02;77.00;;;51.63;;
8944;SDS011;4507;40.232;29.132;2023-03-01T11:40:55;71.73;;;52.27;;
8944;SDS011;4507;40.232;29.132;2023-03-01T11:43:36;71.00;;;50.37;;
8944;SDS011;4507;40.232;29.132;2023-03-01T11:46:39;69.57;;;49.73;;
8944;SDS011;4507;40.232;29.132;2023-03-01T11:52:34;70.17;;;51.13;;
8944;SDS011;4507;40.232;29.132;2023-03-01T11:55:25;68.60;;;53.40;;
8944;SDS011;4507;40.232;29.132;2023-03-01T11:58:25;77.03;;;61.07;;
8944;SDS011;4507;40.232;29.132;2023-03-01T12:01:06;89.67;;;58.47;;
8944;SDS011;4507;40.232;29.132;2023-03-01T12:03:49;78.13;;;54.17;;
8944;SDS011;4507;40.232;29.132;2023-03-01T12:06:38;78.13;;;55.60;;
8944;SDS011;4507;40.232;29.132;2023-03-01T12:09:30;75.93;;;53.90;;
8944;SDS011;4507;40.232;29.132;2023-03-01T12:12:42;69.17;;;52.17;;
8944;SDS011;4507;40.232;29.132;2023-03-01T12:18:53;66.30;;;47.57;;
8944;SDS011;4507;40.232;29.132;2023-03-01T12:21:40;66.30;;;48.23;;
8944;SDS011;4507;40.232;29.132;2023-03-01T12:24:26;63.97;;;49.93;;
8944;SDS011;4507;40.232;29.132;2023-03-01T12:27:17;61.00;;;46.13;;
8944;SDS011;4507;40.232;29.132;2023-03-01T12:30:03;66.07;;;47.37;;
8944;SDS011;4507;40.232;29.132;2023-03-01T12:32:52;63.83;;;45.57;;
8944;SDS011;4507;40.232;29.132;2023-03-01T12:35:34;68.47;;;46.47;;
8944;SDS011;4507;40.232;29.132;2023-03-01T12:38:16;61.90;;;43.93;;
8944;SDS011;4507;40.232;29.132;2023-03-01T12:41:11;69.10;;;46.50;;
8944;SDS011;4507;40.232;29.132;2023-03-01T12:43:54;78.20;;;43.70;;
8944;SDS011;4507;40.232;29.132;2023-03-01T12:46:41;70.17;;;44.77;;
8944;SDS011;4507;40.232;29.132;2023-03-01T12:49:26;60.50;;;42.23;;
8944;SDS011;4507;40.232;29.132;2023-03-01T12:52:09;63.47;;;41.10;;
8944;SDS011;4507;40.232;29.132;2023-03-01T12:54:41;61.90;;;41.40;;
8944;SDS011;4507;40.232;29.132;2023-03-01T12:57:14;62.07;;;43.37;;
8944;SDS011;4507;40.232;29.132;2023-03-01T12:59:51;65.10;;;42.63;;
8944;SDS011;4507;40.232;29.132;2023-03-01T13:02:36;70.30;;;44.03;;
8944;SDS011;4507;40.232;29.132;2023-03-01T13:05:18;71.53;;;42.87;;
8944;SDS011;4507;40.232;29.132;2023-03-01T13:07:53;80.33;;;45.47;;
8944;SDS011;4507;40.232;29.132;2023-03-01T13:10:31;66.93;;;44.00;;
8944;SDS011;4507;40.232;29.132;2023-03-01T13:13:13;85.47;;;47.37;;
8944;SDS011;4507;40.232;29.132;2023-03-01T13:15:47;79.13;;;46.03;;
8944;SDS011;4507;40.232;29.132;2023-03-01T13:18:38;70.47;;;46.87;;
8944;SDS011;4507;40.232;29.132;2023-03-01T13:21:08;65.33;;;44.57;;
8944;SDS011;4507;40.232;29.132;2023-03-01T13:23:38;64.77;;;43.27;;
8944;SDS011;4507;40.232;29.132;2023-03-01T13:28:51;67.87;;;43.53;;
8944;SDS011;4507;40.232;29.132;2023-03-01T13:34:42;81.07;;;45.60;;
8944;SDS011;4507;40.232;29.132;2023-03-01T13:39:59;79.90;;;44.87;;
8944;SDS011;4507;40.232;29.132;2023-03-01T13:42:52;71.27;;;44.00;;
8944;SDS011;4507;40.232;29.132;2023-03-01T13:45:36;70.57;;;42.50;;
8944;SDS011;4507;40.232;29.132;2023-03-01T13:48:08;63.07;;;43.60;;
8944;SDS011;4507;40.232;29.132;2023-03-01T13:50:45;66.03;;;43.70;;
8944;SDS011;4507;40.232;29.132;2023-03-01T13:53:18;74.80;;;44.63;;
8944;SDS011;4507;40.232;29.132;2023-03-01T13:55:50;74.77;;;42.03;;
8944;SDS011;4507;40.232;29.132;2023-03-01T13:58:26;67.63;;;42.77;;
8944;SDS011;4507;40.232;29.132;2023-03-01T14:00:57;67.97;;;43.33;;
8944;SDS011;4507;40.232;29.132;2023-03-01T14:03:28;61.00;;;42.23;;
8944;SDS011;4507;40.232;29.132;2023-03-01T14:06:01;64.57;;;41.17;;
8944;SDS011;4507;40.232;29.132;2023-03-01T14:08:42;65.30;;;42.13;;
8944;SDS011;4507;40.232;29.132;2023-03-01T14:14:16;75.37;;;43.57;;
8944;SDS011;4507;40.232;29.132;2023-03-01T14:17:00;74.73;;;43.23;;
8944;SDS011;4507;40.232;29.132;2023-03-01T14:19:39;64.33;;;43.03;;
8944;SDS011;4507;40.232;29.132;2023-03-01T14:22:14;65.83;;;42.97;;
8944;SDS011;4507;40.232;29.132;2023-03-01T14:24:51;66.83;;;43.67;;
8944;SDS011;4507;40.232;29.132;2023-03-01T14:27:23;69.53;;;42.07;;
8944;SDS011;4507;40.232;29.132;2023-03-01T14:29:55;69.47;;;40.37;;
8944;SDS011;4507;40.232;29.132;2023-03-01T14:32:27;71.90;;;41.40;;
8944;SDS011;4507;40.232;29.132;2023-03-01T14:34:58;61.43;;;40.13;;
8944;SDS011;4507;40.232;29.132;2023-03-01T14:37:29;74.53;;;39.80;;
8944;SDS011;4507;40.232;29.132;2023-03-01T14:40:02;78.17;;;39.60;;
8944;SDS011;4507;40.232;29.132;2023-03-01T14:42:34;60.10;;;40.60;;
8944;SDS011;4507;40.232;29.132;2023-03-01T14:45:14;68.63;;;38.93;;
8944;SDS011;4507;40.232;29.132;2023-03-01T14:47:45;55.80;;;37.10;;
8944;SDS011;4507;40.232;29.132;2023-03-01T14:50:18;62.23;;;37.77;;
8944;SDS011;4507;40.232;29.132;2023-03-01T14:52:53;54.50;;;37.93;;
8944;SDS011;4507;40.232;29.132;2023-03-01T14:55:25;54.60;;;38.03;;
8944;SDS011;4507;40.232;29.132;2023-03-01T14:57:57;60.00;;;40.13;;
8944;SDS011;4507;40.232;29.132;2023-03-01T15:00:38;60.47;;;39.93;;
8944;SDS011;4507;40.232;29.132;2023-03-01T15:03:17;60.03;;;40.47;;
8944;SDS011;4507;40.232;29.132;2023-03-01T15:05:52;71.13;;;43.30;;
8944;SDS011;4507;40.232;29.132;2023-03-01T15:08:24;69.20;;;47.67;;
8944;SDS011;4507;40.232;29.132;2023-03-01T15:11:01;59.87;;;41.30;;
8944;SDS011;4507;40.232;29.132;2023-03-01T15:13:35;66.03;;;43.17;;
8944;SDS011;4507;40.232;29.132;2023-03-01T15:16:05;56.77;;;39.47;;
8944;SDS011;4507;40.232;29.132;2023-03-01T15:18:37;70.77;;;44.00;;
8944;SDS011;4507;40.232;29.132;2023-03-01T15:21:15;62.00;;;42.70;;
8944;SDS011;4507;40.232;29.132;2023-03-01T15:23:51;58.77;;;40.73;;
8944;SDS011;4507;40.232;29.132;2023-03-01T15:26:23;52.60;;;39.10;;
8944;SDS011;4507;40.232;29.132;2023-03-01T15:28:54;62.23;;;39.37;;
8944;SDS011;4507;40.232;29.132;2023-03-01T15:31:26;53.73;;;38.87;;
8944;SDS011;4507;40.232;29.132;2023-03-01T15:34:07;57.30;;;36.57;;